Time;durP1;ratioP1;P1;durP2;ratioP2;P2;SDS_P1;SDS_P2;PMS_P1;PMS_P2;Temp;Humidity;BMP_temperature;BMP_pressure;BME280_temperature;BME280_humidity;BME280_pressure;Samples;Min_cycle;Max_cycle;Signal;HPM_P1;HPM_P2
2023/10/20 00:01:58;;;;;;;23.27;10.80;;;9.60;99.90;;;;;;5094195;28;20036;-87
2023/10/20 00:04:24;;;;;;;24.48;9.73;;;9.50;99.90;;;;;;5102967;28;20494;-88
2023/10/20 00:06:50;;;;;;;24.48;10.98;;;9.60;99.90;;;;;;5086420;28;20038;-88
2023/10/20 00:09:16;;;;;;;25.33;11.40;;;9.60;99.90;;;;;;5085113;28;20502;-88
2023/10/20 00:11:43;;;;;;;20.27;9.48;;;9.50;99.90;;;;;;5077955;28;20084;-89
2023/10/20 00:14:09;;;;;;;21.60;9.90;;;9.50;99.90;;;;;;5077428;28;20040;-88
2023/10/20 00:16:34;;;;;;;22.63;10.88;;;9.60;99.90;;;;;;5077201;28;20122;-88
2023/10/20 00:19:02;;;;;;;20.45;9.80;;;9.60;99.90;;;;;;5093748;28;20040;-88
2023/10/20 00:21:31;;;;;;;21.40;9.05;;;9.50;99.90;;;;;;5093888;28;20070;-89
2023/10/20 00:23:56;;;;;;;24.58;10.48;;;9.50;99.90;;;;;;5076925;28;20043;-89
2023/10/20 00:26:22;;;;;;;27.70;10.52;;;9.60;99.90;;;;;;5076960;28;20041;-89
2023/10/20 00:28:48;;;;;;;27.80;11.18;;;9.50;99.90;;;;;;5096802;28;20410;-88
2023/10/20 00:31:16;;;;;;;21.85;10.00;;;9.60;99.90;;;;;;5095077;28;20043;-88
2023/10/20 00:33:42;;;;;;;27.75;12.07;;;9.60;99.90;;;;;;5094371;28;20043;-89
2023/10/20 00:36:11;;;;;;;26.05;11.70;;;9.50;99.90;;;;;;5093833;28;20578;-89
2023/10/20 00:38:36;;;;;;;20.92;10.15;;;9.50;99.90;;;;;;5093983;28;20379;-89
2023/10/20 00:41:02;;;;;;;22.00;10.90;;;9.50;99.90;;;;;;5093425;28;20559;-89
2023/10/20 00:43:37;;;;;;;22.20;9.77;;;9.50;99.90;;;;;;5093705;28;20038;-89
2023/10/20 00:46:08;;;;;;;23.50;10.55;;;9.50;99.90;;;;;;5093549;28;20044;-89
2023/10/20 00:48:37;;;;;;;19.95;9.52;;;9.50;99.90;;;;;;5076834;28;20036;-88
2023/10/20 00:51:05;;;;;;;18.80;8.90;;;9.50;99.90;;;;;;5075400;28;20054;-88
2023/10/20 00:53:34;;;;;;;17.75;9.30;;;9.50;99.90;;;;;;5075738;28;20040;-88
2023/10/20 00:56:03;;;;;;;24.23;10.05;;;9.50;99.90;;;;;;5075801;28;20032;-88
2023/10/20 00:58:29;;;;;;;21.58;9.75;;;9.50;99.90;;;;;;5075887;28;20067;-88
2023/10/20 01:00:54;;;;;;;21.65;10.45;;;9.50;99.90;;;;;;5075724;28;20696;-88
2023/10/20 01:03:21;;;;;;;23.33;10.63;;;9.40;99.90;;;;;;5076423;28;20035;-88
2023/10/20 01:05:47;;;;;;;22.58;10.77;;;9.50;99.90;;;;;;5077020;28;20043;-88
2023/10/20 01:08:14;;;;;;;20.63;9.23;;;9.50;99.90;;;;;;5076510;28;20047;-89
2023/10/20 01:10:39;;;;;;;19.67;8.85;;;9.50;99.90;;;;;;5076667;28;20127;-88
2023/10/20 01:13:05;;;;;;;20.45;8.93;;;9.50;99.90;;;;;;5098874;28;20510;-88
2023/10/20 01:15:31;;;;;;;23.88;8.52;;;9.40;99.90;;;;;;5076643;28;20036;-88
2023/10/20 01:17:57;;;;;;;23.77;10.13;;;9.50;99.90;;;;;;5076488;28;20039;-88
2023/10/20 01:20:23;;;;;;;20.27;8.43;;;9.40;99.90;;;;;;5076192;28;20039;-89
2023/10/20 01:22:49;;;;;;;20.48;8.30;;;9.40;99.90;;;;;;5076225;28;20043;-89
2023/10/20 01:25:15;;;;;;;26.65;7.55;;;9.40;99.90;;;;;;5076536;28;20027;-88
2023/10/20 01:27:41;;;;;;;18.95;7.80;;;9.40;99.90;;;;;;5076660;28;20085;-89
2023/10/20 01:30:07;;;;;;;17.70;7.70;;;9.40;99.90;;;;;;5093407;28;20112;-89
2023/10/20 01:32:33;;;;;;;21.52;9.40;;;9.40;99.90;;;;;;5093403;28;20067;-89
2023/10/20 01:35:00;;;;;;;17.85;7.82;;;9.40;99.90;;;;;;5076386;28;20035;-89
2023/10/20 01:37:25;;;;;;;32.33;9.80;;;9.40;99.90;;;;;;5076392;28;20047;-89
2023/10/20 01:39:51;;;;;;;28.08;9.48;;;9.30;99.90;;;;;;5079508;28;20118;-89
2023/10/20 01:42:16;;;;;;;22.45;9.55;;;9.40;99.90;;;;;;5086771;28;20105;-89
2023/10/20 01:44:42;;;;;;;19.75;8.43;;;9.40;99.90;;;;;;5080013;28;20047;-89
2023/10/20 01:47:08;;;;;;;25.10;10.07;;;9.30;99.90;;;;;;5080020;28;20035;-89
2023/10/20 01:49:34;;;;;;;25.73;11.20;;;9.40;99.90;;;;;;5096777;28;20039;-89
2023/10/20 01:51:59;;;;;;;20.33;8.98;;;9.30;99.90;;;;;;5080143;28;20387;-88
2023/10/20 01:54:25;;;;;;;26.90;11.63;;;9.30;99.90;;;;;;5096979;28;20546;-88
2023/10/20 01:56:51;;;;;;;27.90;11.50;;;9.40;99.90;;;;;;5080070;28;20463;-89
2023/10/20 01:59:16;;;;;;;20.23;9.57;;;9.40;99.90;;;;;;5096251;28;20039;-88
2023/10/20 02:01:42;;;;;;;20.05;10.20;;;9.40;99.90;;;;;;5079571;28;20395;-89
2023/10/20 02:04:08;;;;;;;19.63;8.95;;;9.40;99.90;;;;;;5096336;28;20059;-88
2023/10/20 02:06:34;;;;;;;22.25;10.23;;;9.30;99.90;;;;;;5096749;28;20337;-88
2023/10/20 02:09:00;;;;;;;20.55;9.45;;;9.30;99.90;;;;;;5079816;28;20584;-88
2023/10/20 02:11:25;;;;;;;29.55;9.77;;;9.30;99.90;;;;;;5079183;28;20655;-88
2023/10/20 02:13:51;;;;;;;21.42;9.23;;;9.30;99.90;;;;;;5096286;28;20043;-88
2023/10/20 02:16:17;;;;;;;19.25;9.18;;;9.30;99.90;;;;;;5096308;28;20044;-89
2023/10/20 02:18:43;;;;;;;22.10;10.77;;;9.30;99.90;;;;;;5079447;28;20078;-88
2023/10/20 02:21:09;;;;;;;21.10;9.35;;;9.30;99.90;;;;;;5095605;28;20456;-88
2023/10/20 02:23:38;;;;;;;21.50;10.82;;;9.30;99.90;;;;;;5078907;28;20036;-88
2023/10/20 02:26:05;;;;;;;22.45;10.40;;;9.30;99.90;;;;;;5079300;28;20049;-88
2023/10/20 02:28:35;;;;;;;21.77;10.82;;;9.30;99.90;;;;;;5079093;28;20039;-89
2023/10/20 02:31:09;;;;;;;25.67;9.65;;;9.30;99.90;;;;;;5096419;28;20039;-88
2023/10/20 02:33:35;;;;;;;20.77;10.18;;;9.30;99.90;;;;;;5079827;28;20520;-88
2023/10/20 02:36:01;;;;;;;16.80;8.88;;;9.30;99.90;;;;;;5080533;28;20095;-88
2023/10/20 02:38:26;;;;;;;21.98;9.75;;;9.20;99.90;;;;;;5079090;28;20066;-88
2023/10/20 02:40:54;;;;;;;20.98;10.75;;;9.20;99.90;;;;;;5095579;28;20057;-88
2023/10/20 02:43:23;;;;;;;21.70;9.32;;;9.30;99.90;;;;;;5078760;28;20036;-89
2023/10/20 02:45:52;;;;;;;17.95;7.90;;;9.30;99.90;;;;;;5099292;28;20454;-89
2023/10/20 02:48:18;;;;;;;19.58;8.73;;;9.20;99.90;;;;;;5079758;28;20043;-88
2023/10/20 02:50:43;;;;;;;24.55;8.95;;;9.20;99.90;;;;;;5095302;28;20040;-89
2023/10/20 02:53:09;;;;;;;21.17;9.10;;;9.20;99.90;;;;;;5095532;28;20059;-89
2023/10/20 02:55:35;;;;;;;23.55;9.73;;;9.20;99.90;;;;;;5078778;28;20044;-88
2023/10/20 02:58:01;;;;;;;19.55;9.30;;;9.20;99.90;;;;;;5078802;28;20031;-88
2023/10/20 03:00:27;;;;;;;16.38;7.90;;;9.20;99.90;;;;;;5095100;28;20036;-89
2023/10/20 03:02:53;;;;;;;22.65;10.40;;;9.20;99.90;;;;;;5095220;28;20042;-89
2023/10/20 03:05:20;;;;;;;22.00;10.00;;;9.20;99.90;;;;;;5078271;28;20062;-89
2023/10/20 03:07:47;;;;;;;27.58;10.82;;;9.20;99.90;;;;;;5078525;28;20064;-89
2023/10/20 03:10:13;;;;;;;28.15;10.38;;;9.20;99.90;;;;;;5078476;28;20161;-88
2023/10/20 03:12:38;;;;;;;23.40;9.23;;;9.20;99.90;;;;;;5094921;28;20126;-88
2023/10/20 03:15:06;;;;;;;18.65;9.25;;;9.20;99.90;;;;;;5078301;28;20126;-88
2023/10/20 03:17:32;;;;;;;21.08;9.60;;;9.20;99.90;;;;;;5079183;28;20035;-88
2023/10/20 03:19:58;;;;;;;18.15;9.98;;;9.20;99.90;;;;;;5081528;28;20130;-87
2023/10/20 03:22:23;;;;;;;20.02;9.55;;;9.20;99.90;;;;;;5078041;28;20047;-88
2023/10/20 03:24:49;;;;;;;20.25;8.32;;;9.20;99.90;;;;;;5078406;28;20031;-88
2023/10/20 03:27:14;;;;;;;21.65;9.02;;;9.20;99.90;;;;;;5078271;28;20469;-88
2023/10/20 03:29:40;;;;;;;19.92;9.25;;;9.20;99.90;;;;;;5094899;28;20043;-88
2023/10/20 03:32:06;;;;;;;15.77;8.10;;;9.10;99.90;;;;;;5078002;28;20042;-88
2023/10/20 03:34:32;;;;;;;17.67;7.75;;;9.20;99.90;;;;;;5078004;28;20036;-88
2023/10/20 03:36:58;;;;;;;16.75;8.23;;;9.10;99.90;;;;;;5077624;28;20546;-88
2023/10/20 03:39:24;;;;;;;19.95;8.88;;;9.10;99.90;;;;;;5094848;28;20084;-89
2023/10/20 03:41:49;;;;;;;18.77;8.25;;;9.10;99.90;;;;;;5077799;28;20126;-89
2023/10/20 03:44:16;;;;;;;20.00;8.60;;;9.10;99.90;;;;;;5077817;28;20027;-89
2023/10/20 03:46:48;;;;;;;17.65;8.55;;;9.10;99.90;;;;;;5094760;28;20445;-88
2023/10/20 03:49:15;;;;;;;17.92;7.32;;;9.10;99.90;;;;;;5077725;28;20126;-89
2023/10/20 03:51:49;;;;;;;14.32;7.80;;;9.10;99.90;;;;;;5077339;28;20035;-89
2023/10/20 03:54:15;;;;;;;19.95;8.90;;;9.10;99.90;;;;;;5077535;28;20040;-88
2023/10/20 03:56:41;;;;;;;15.77;8.23;;;9.10;99.90;;;;;;5094540;28;20069;-88
2023/10/20 03:59:08;;;;;;;17.65;7.25;;;9.10;99.90;;;;;;5077539;28;20097;-88
2023/10/20 04:01:34;;;;;;;16.17;7.18;;;9.10;99.90;;;;;;5076344;28;20518;-88
2023/10/20 04:03:59;;;;;;;14.45;6.50;;;9.10;99.90;;;;;;5093804;28;20039;-88
2023/10/20 04:06:25;;;;;;;18.45;9.05;;;9.10;99.90;;;;;;5077493;28;20066;-89
2023/10/20 04:08:50;;;;;;;27.17;8.27;;;9.10;99.90;;;;;;5085897;28;20090;-89
2023/10/20 04:11:16;;;;;;;19.08;8.77;;;9.10;99.90;;;;;;5077163;28;20113;-89
2023/10/20 04:13:42;;;;;;;17.27;8.15;;;9.10;99.90;;;;;;5077086;28;20040;-88
2023/10/20 04:16:12;;;;;;;17.67;8.57;;;9.10;99.90;;;;;;5094370;28;20040;-88
2023/10/20 04:18:41;;;;;;;17.20;8.93;;;9.10;99.90;;;;;;5085629;28;20502;-89
2023/10/20 04:21:07;;;;;;;20.58;9.35;;;9.10;99.90;;;;;;5093608;28;20057;-88
2023/10/20 04:23:33;;;;;;;19.65;9.23;;;9.10;99.90;;;;;;5077225;28;20043;-88
2023/10/20 04:25:58;;;;;;;17.10;7.70;;;9.10;99.90;;;;;;5077140;28;20483;-88
2023/10/20 04:29:33;;;;;;;22.65;8.55;;;9.10;99.90;;;;;;5076561;28;20040;-88
2023/10/20 05:02:57;;;;;;;17.13;7.45;;;9.00;99.90;;;;;;5093544;28;20082;-89
2023/10/20 05:10:38;;;;;;;18.85;8.10;;;9.00;99.90;;;;;;5092887;28;20051;-88
2023/10/20 05:13:04;;;;;;;14.48;7.13;;;9.00;99.90;;;;;;5081397;28;20050;-88
2023/10/20 05:15:33;;;;;;;14.20;6.18;;;9.00;99.90;;;;;;5080702;28;20044;-88
2023/10/20 05:17:58;;;;;;;15.35;6.57;;;9.00;99.90;;;;;;5080437;28;20039;-89
2023/10/20 05:20:25;;;;;;;16.48;6.50;;;9.00;99.90;;;;;;5079984;28;20039;-88
2023/10/20 05:22:50;;;;;;;13.80;6.68;;;9.00;99.90;;;;;;5097091;28;20228;-88
2023/10/20 05:25:17;;;;;;;16.35;8.55;;;9.00;99.90;;;;;;5079401;28;20126;-88
2023/10/20 05:27:43;;;;;;;15.65;7.30;;;9.00;99.90;;;;;;5079696;28;20447;-89
2023/10/20 05:30:09;;;;;;;17.00;7.75;;;9.00;99.90;;;;;;5084532;27;20485;-88
2023/10/20 05:32:37;;;;;;;17.95;8.35;;;9.00;99.90;;;;;;5103949;28;20166;-89
2023/10/20 05:35:04;;;;;;;17.77;8.20;;;9.00;99.90;;;;;;5080210;28;20036;-88
2023/10/20 05:37:30;;;;;;;18.92;7.70;;;9.00;99.90;;;;;;5080017;28;20042;-89
2023/10/20 05:39:56;;;;;;;13.15;6.40;;;9.00;99.90;;;;;;5080064;28;20039;-88
2023/10/20 05:42:22;;;;;;;14.52;5.65;;;9.00;99.90;;;;;;5080248;28;20040;-88
2023/10/20 05:44:58;;;;;;;13.50;6.50;;;9.00;99.90;;;;;;5097144;28;20526;-88
2023/10/20 05:47:24;;;;;;;14.27;5.35;;;8.90;99.90;;;;;;5096886;28;20040;-88
2023/10/20 05:49:50;;;;;;;16.88;6.68;;;8.90;99.90;;;;;;5079992;28;20542;-89
2023/10/20 05:52:15;;;;;;;14.73;6.32;;;8.90;99.90;;;;;;5107471;28;20074;-89
2023/10/20 05:54:42;;;;;;;14.43;5.55;;;8.90;99.90;;;;;;5102478;28;20099;-88
2023/10/20 05:57:07;;;;;;;13.75;6.25;;;8.90;99.90;;;;;;5098223;28;20518;-88
2023/10/20 05:59:33;;;;;;;13.77;6.80;;;8.90;99.90;;;;;;5097822;28;20053;-89
2023/10/20 06:01:59;;;;;;;14.10;6.75;;;8.90;99.90;;;;;;5098032;28;20089;-88
2023/10/20 06:04:24;;;;;;;16.25;6.80;;;8.90;99.90;;;;;;5080933;28;20039;-88
2023/10/20 06:06:50;;;;;;;10.55;4.63;;;8.90;99.90;;;;;;5085572;28;20040;-88
2023/10/20 06:09:16;;;;;;;13.15;5.20;;;8.90;99.90;;;;;;5107321;27;20596;-88
2023/10/20 06:11:42;;;;;;;15.25;6.25;;;8.90;99.90;;;;;;5090501;27;20031;-89
2023/10/20 06:14:07;;;;;;;12.13;6.05;;;8.90;99.90;;;;;;5081185;28;20187;-88
2023/10/20 06:16:33;;;;;;;12.75;5.65;;;8.90;99.90;;;;;;5083226;27;20053;-88
2023/10/20 06:18:59;;;;;;;14.85;6.13;;;8.80;99.90;;;;;;5083368;28;20422;-88
2023/10/20 06:21:25;;;;;;;16.02;5.80;;;8.80;99.90;;;;;;5095684;28;20525;-88
2023/10/20 06:23:51;;;;;;;12.23;5.68;;;8.80;99.90;;;;;;5094553;28;20032;-89
2023/10/20 06:26:16;;;;;;;16.08;5.93;;;8.80;99.90;;;;;;5095594;28;20035;-89
2023/10/20 06:28:43;;;;;;;13.02;5.40;;;8.80;99.90;;;;;;5079055;28;20465;-89
2023/10/20 06:34:36;;;;;;;11.77;5.07;;;8.80;99.90;;;;;;5095999;28;20047;-89
2023/10/20 06:36:48;;;;;;;13.77;6.35;;;8.80;99.90;;;;;;5087645;28;20112;-89
2023/10/20 06:39:14;;;;;;;11.43;4.67;;;8.80;99.90;;;;;;5085918;27;20043;-89
2023/10/20 06:41:40;;;;;;;12.07;4.72;;;8.80;99.90;;;;;;5083360;28;20039;-89
2023/10/20 06:44:06;;;;;;;10.88;4.32;;;8.80;99.90;;;;;;5098749;28;20483;-88
2023/10/20 06:46:31;;;;;;;11.57;5.35;;;8.80;99.90;;;;;;5079233;28;20040;-89
2023/10/20 06:48:57;;;;;;;12.63;5.70;;;8.80;99.90;;;;;;5104455;28;20483;-89
2023/10/20 06:51:25;;;;;;;13.25;5.00;;;8.80;99.90;;;;;;5078729;28;20031;-89
2023/10/20 06:53:51;;;;;;;12.70;4.60;;;8.80;99.90;;;;;;5095635;28;20044;-89
2023/10/20 06:56:17;;;;;;;11.93;4.68;;;8.80;99.90;;;;;;5095926;28;20048;-89
2023/10/20 06:58:43;;;;;;;8.82;3.58;;;8.80;99.90;;;;;;5078477;28;20507;-89
2023/10/20 07:01:09;;;;;;;9.60;4.63;;;8.80;99.90;;;;;;5095413;28;20069;-89
2023/10/20 07:03:35;;;;;;;11.60;4.72;;;8.80;99.90;;;;;;5094958;28;20035;-89
2023/10/20 07:06:01;;;;;;;11.98;5.13;;;8.80;99.90;;;;;;5078509;28;20043;-88
2023/10/20 07:08:26;;;;;;;11.15;4.22;;;8.80;99.90;;;;;;5095629;28;20039;-88
2023/10/20 07:10:52;;;;;;;9.35;3.85;;;8.80;99.90;;;;;;5082395;28;20044;-88
2023/10/20 07:13:18;;;;;;;7.50;3.08;;;8.80;99.90;;;;;;5080525;28;20039;-88
2023/10/20 07:15:44;;;;;;;12.20;4.65;;;8.80;99.90;;;;;;5096207;28;20035;-88
2023/10/20 07:18:12;;;;;;;9.57;4.25;;;8.80;99.90;;;;;;5078305;28;20126;-88
2023/10/20 07:20:41;;;;;;;10.25;3.72;;;8.80;99.90;;;;;;5100772;28;20047;-88
2023/10/20 07:23:07;;;;;;;10.20;4.22;;;8.80;99.90;;;;;;5078195;28;20036;-88
2023/10/20 07:25:33;;;;;;;10.23;4.72;;;8.70;99.90;;;;;;5095154;28;20049;-88
2023/10/20 07:27:59;;;;;;;10.32;4.30;;;8.70;99.90;;;;;;5078807;27;20036;-88
2023/10/20 07:30:28;;;;;;;9.85;4.07;;;8.80;99.90;;;;;;5104205;27;20093;-88
2023/10/20 07:32:53;;;;;;;12.10;4.70;;;8.80;99.90;;;;;;5103117;27;20047;-89
2023/10/20 07:35:19;;;;;;;8.80;3.83;;;8.80;99.90;;;;;;5087368;27;20027;-88
2023/10/20 07:37:45;;;;;;;10.85;3.55;;;8.80;99.90;;;;;;5104506;27;20034;-88
2023/10/20 07:40:11;;;;;;;10.23;4.40;;;8.80;99.90;;;;;;5086082;27;20031;-88
2023/10/20 07:42:40;;;;;;;9.57;4.30;;;8.70;99.90;;;;;;5104309;27;20027;-88
2023/10/20 07:45:07;;;;;;;9.70;3.38;;;8.70;99.90;;;;;;5085060;28;20028;-88
2023/10/20 07:47:33;;;;;;;8.98;3.60;;;8.70;99.90;;;;;;5086178;28;20042;-88
2023/10/20 07:49:59;;;;;;;12.52;4.70;;;8.80;99.90;;;;;;5077192;28;20077;-88
2023/10/20 07:52:25;;;;;;;11.30;3.85;;;8.80;99.90;;;;;;5094465;28;20036;-88
2023/10/20 07:54:51;;;;;;;9.45;4.07;;;8.80;99.90;;;;;;5077806;28;20479;-88
2023/10/20 07:57:18;;;;;;;10.57;3.60;;;8.80;99.90;;;;;;5100167;28;20517;-88
2023/10/20 07:59:45;;;;;;;10.15;4.15;;;8.80;99.90;;;;;;5077723;28;20039;-88
2023/10/20 08:02:10;;;;;;;8.88;3.63;;;8.80;99.90;;;;;;5093911;28;20482;-88
2023/10/20 08:04:41;;;;;;;8.18;2.95;;;8.80;99.90;;;;;;5077476;28;20032;-88
2023/10/20 08:07:09;;;;;;;10.10;3.15;;;8.80;99.90;;;;;;5083295;28;20109;-88
2023/10/20 08:09:36;;;;;;;8.40;3.90;;;8.70;99.90;;;;;;5097044;28;20042;-88
2023/10/20 08:12:02;;;;;;;9.57;3.95;;;8.80;99.90;;;;;;5089733;27;20027;-88
2023/10/20 08:14:28;;;;;;;7.80;3.28;;;8.80;99.90;;;;;;5090009;27;20030;-88
2023/10/20 08:16:54;;;;;;;7.38;3.28;;;8.80;99.90;;;;;;5073015;28;20096;-87
2023/10/20 08:19:20;;;;;;;7.22;3.00;;;8.80;99.90;;;;;;5085453;28;20042;-88
2023/10/20 08:21:46;;;;;;;7.72;3.00;;;8.80;99.90;;;;;;5086099;28;20080;-87
2023/10/20 08:24:12;;;;;;;8.10;3.33;;;8.80;99.90;;;;;;5077833;28;20070;-87
2023/10/20 08:26:39;;;;;;;9.35;3.17;;;8.70;99.90;;;;;;5088668;27;20039;-88
2023/10/20 08:29:11;;;;;;;5.50;2.53;;;8.70;99.90;;;;;;5089349;28;20162;-88
2023/10/20 08:31:38;;;;;;;6.15;2.47;;;8.70;99.90;;;;;;5085677;28;20508;-88
2023/10/20 08:34:04;;;;;;;9.23;3.08;;;8.70;99.90;;;;;;5089400;28;20453;-88
2023/10/20 08:36:30;;;;;;;6.05;2.28;;;8.70;99.90;;;;;;5102974;28;20047;-88
2023/10/20 08:38:56;;;;;;;5.70;2.00;;;8.70;99.90;;;;;;5093410;28;20035;-88
2023/10/20 08:41:23;;;;;;;5.22;2.22;;;8.80;99.90;;;;;;5076829;28;20569;-88
2023/10/20 08:43:49;;;;;;;6.90;2.50;;;8.80;99.90;;;;;;5076897;28;20514;-88
2023/10/20 08:46:17;;;;;;;6.70;2.38;;;8.80;99.90;;;;;;5094492;28;20440;-87
2023/10/20 08:48:44;;;;;;;6.15;2.42;;;8.80;99.90;;;;;;5100442;28;20047;-89
2023/10/20 08:51:11;;;;;;;5.45;1.75;;;8.80;99.90;;;;;;5083395;28;20043;-88
2023/10/20 08:53:38;;;;;;;2.47;1.27;;;8.80;99.90;;;;;;5085692;28;20371;-88
2023/10/20 08:56:05;;;;;;;5.30;2.28;;;8.80;99.90;;;;;;5103405;28;20447;-89
2023/10/20 08:58:31;;;;;;;4.40;2.08;;;8.80;99.90;;;;;;5091758;28;20521;-89
2023/10/20 09:00:57;;;;;;;4.53;2.17;;;8.70;99.90;;;;;;5087427;28;20040;-89
2023/10/20 09:03:26;;;;;;;5.18;1.90;;;8.70;99.90;;;;;;5100631;28;20040;-89
2023/10/20 09:06:10;;;;;;;4.95;1.85;;;8.70;99.90;;;;;;5083395;28;20028;-89
2023/10/20 09:08:37;;;;;;;4.43;1.48;;;8.70;99.90;;;;;;5083224;28;20031;-89
2023/10/20 09:11:06;;;;;;;6.78;1.75;;;8.70;99.90;;;;;;5083582;28;20059;-89
2023/10/20 09:13:34;;;;;;;3.92;1.50;;;8.70;99.90;;;;;;5084944;27;20038;-89
2023/10/20 09:16:01;;;;;;;3.85;1.40;;;8.70;99.90;;;;;;5093643;28;20490;-88
2023/10/20 09:18:27;;;;;;;3.30;1.15;;;8.70;99.90;;;;;;5091797;28;20062;-89
2023/10/20 09:21:03;;;;;;;4.30;1.33;;;8.70;99.90;;;;;;5083406;28;20092;-88
2023/10/20 09:23:29;;;;;;;4.20;1.70;;;8.70;99.90;;;;;;5099862;27;20035;-88
2023/10/20 09:25:54;;;;;;;2.45;1.17;;;8.70;99.90;;;;;;5104509;28;20112;-88
2023/10/20 09:28:20;;;;;;;3.30;1.60;;;8.70;99.90;;;;;;5084551;28;20043;-88
2023/10/20 09:30:48;;;;;;;3.88;1.55;;;8.70;99.90;;;;;;5098105;28;20542;-88
2023/10/20 09:33:14;;;;;;;5.30;1.50;;;8.70;99.90;;;;;;5084198;28;20044;-88
2023/10/20 09:35:41;;;;;;;4.85;1.90;;;8.70;99.90;;;;;;5066966;28;20071;-88
2023/10/20 09:38:12;;;;;;;3.30;1.40;;;8.70;99.90;;;;;;5083262;28;20093;-88
2023/10/20 09:40:41;;;;;;;2.92;1.58;;;8.70;99.90;;;;;;5099837;28;20044;-88
2023/10/20 09:43:19;;;;;;;3.25;1.27;;;8.60;99.90;;;;;;5088336;28;20034;-88
2023/10/20 09:45:47;;;;;;;3.90;1.67;;;8.60;99.90;;;;;;5099956;28;20122;-88
2023/10/20 09:48:20;;;;;;;1.52;0.73;;;8.70;99.90;;;;;;5085101;28;20498;-88
2023/10/20 09:50:47;;;;;;;3.15;1.33;;;8.60;99.90;;;;;;5082621;28;20033;-87
2023/10/20 09:53:16;;;;;;;2.83;1.30;;;8.70;99.90;;;;;;5098671;28;20077;-88
2023/10/20 09:55:47;;;;;;;3.15;1.40;;;8.60;99.90;;;;;;5081520;28;20122;-88
2023/10/20 09:58:24;;;;;;;2.70;1.45;;;8.60;99.90;;;;;;5097254;28;20044;-89
2023/10/20 10:00:51;;;;;;;2.92;1.08;;;8.70;99.90;;;;;;5096052;28;20483;-88
2023/10/20 10:03:27;;;;;;;2.72;1.25;;;8.70;99.90;;;;;;5079361;28;20036;-88
2023/10/20 10:05:53;;;;;;;2.40;1.13;;;8.60;99.90;;;;;;5096838;28;20458;-88
2023/10/20 10:08:20;;;;;;;5.20;1.83;;;8.60;99.90;;;;;;5079421;28;20071;-89
2023/10/20 10:10:46;;;;;;;2.95;1.33;;;8.60;99.90;;;;;;5079454;28;20043;-88
2023/10/20 10:13:11;;;;;;;3.50;1.17;;;8.60;99.90;;;;;;5085085;28;20032;-88
2023/10/20 10:15:45;;;;;;;4.38;1.35;;;8.60;99.90;;;;;;5079489;28;20039;-87
2023/10/20 10:18:12;;;;;;;3.45;1.50;;;8.60;99.90;;;;;;5079239;28;20502;-88
2023/10/20 10:20:45;;;;;;;3.53;1.35;;;8.60;99.90;;;;;;5093971;28;20105;-88
2023/10/20 10:23:14;;;;;;;3.33;1.00;;;8.60;99.90;;;;;;5100498;28;20032;-88
2023/10/20 10:25:46;;;;;;;1.00;0.68;;;8.60;99.90;;;;;;5086048;28;20031;-88
2023/10/20 10:28:20;;;;;;;3.63;0.95;;;8.60;99.90;;;;;;5095683;28;20040;-88
2023/10/20 10:30:50;;;;;;;1.02;0.82;;;8.60;99.90;;;;;;5079266;27;20075;-87
2023/10/20 10:33:20;;;;;;;1.48;0.95;;;8.60;99.90;;;;;;5099396;28;20051;-88
2023/10/20 10:35:46;;;;;;;1.40;0.93;;;8.60;99.90;;;;;;5079974;28;20035;-88
2023/10/20 10:38:22;;;;;;;1.38;0.77;;;8.60;99.90;;;;;;5078158;28;20411;-87
2023/10/20 10:40:51;;;;;;;2.53;1.00;;;8.60;99.90;;;;;;5084672;28;20054;-87
2023/10/20 10:43:19;;;;;;;2.70;1.00;;;8.60;99.90;;;;;;5104276;28;20406;-87
2023/10/20 10:45:50;;;;;;;1.52;0.88;;;8.60;99.90;;;;;;5100204;28;20040;-88
2023/10/20 10:48:16;;;;;;;1.48;0.90;;;8.60;99.90;;;;;;5084685;27;20042;-88
2023/10/20 10:50:48;;;;;;;2.67;1.08;;;8.60;99.90;;;;;;5079117;28;20512;-88
2023/10/20 10:53:14;;;;;;;1.83;1.02;;;8.60;99.90;;;;;;5078831;28;20067;-87
2023/10/20 10:55:41;;;;;;;3.63;1.17;;;8.50;99.90;;;;;;5104422;28;20587;-88
2023/10/20 10:58:14;;;;;;;3.70;1.17;;;8.50;99.90;;;;;;5078653;28;20418;-89
2023/10/20 11:00:44;;;;;;;3.10;1.10;;;8.50;99.90;;;;;;5077701;28;20044;-87
2023/10/20 11:03:10;;;;;;;1.15;0.55;;;8.50;99.90;;;;;;5095198;28;20039;-88
2023/10/20 11:05:37;;;;;;;1.20;0.77;;;8.50;99.90;;;;;;5078552;28;20042;-88
2023/10/20 11:08:05;;;;;;;1.95;0.80;;;8.50;99.90;;;;;;5078429;28;20452;-88
2023/10/20 11:10:41;;;;;;;2.13;0.85;;;8.50;99.90;;;;;;5102884;28;20035;-88
2023/10/20 11:13:10;;;;;;;2.80;0.98;;;8.50;99.90;;;;;;5078442;28;20071;-88
2023/10/20 11:15:37;;;;;;;1.15;0.63;;;8.50;99.90;;;;;;5095247;28;20039;-88
2023/10/20 11:18:04;;;;;;;1.05;0.60;;;8.50;99.90;;;;;;5094742;28;20046;-89
2023/10/20 11:20:37;;;;;;;0.90;0.68;;;8.50;99.90;;;;;;5086028;28;20046;-88
2023/10/20 11:23:05;;;;;;;2.08;0.73;;;8.50;99.90;;;;;;5089137;27;20073;-87
2023/10/20 11:25:31;;;;;;;1.45;0.73;;;8.50;99.90;;;;;;5077669;28;20039;-88
2023/10/20 11:27:57;;;;;;;0.80;0.52;;;8.50;99.90;;;;;;5094880;28;20035;-88
2023/10/20 11:30:26;;;;;;;0.45;0.45;;;8.50;99.90;;;;;;5094767;28;20043;-89
2023/10/20 11:32:53;;;;;;;2.47;0.85;;;8.50;99.90;;;;;;5095075;28;20452;-88
2023/10/20 11:35:21;;;;;;;1.10;0.52;;;8.50;99.90;;;;;;5095137;28;20035;-89
2023/10/20 11:37:48;;;;;;;3.10;0.73;;;8.50;99.90;;;;;;5077702;28;20716;-88
2023/10/20 11:40:15;;;;;;;1.17;0.50;;;8.50;99.90;;;;;;5094165;28;20103;-88
2023/10/20 11:42:41;;;;;;;0.73;0.40;;;8.50;99.90;;;;;;5094728;28;20050;-88
2023/10/20 11:45:07;;;;;;;1.23;0.57;;;8.50;99.90;;;;;;5083215;28;20031;-88
2023/10/20 11:47:33;;;;;;;2.40;0.82;;;8.50;99.90;;;;;;5077779;28;20038;-88
2023/10/20 11:49:59;;;;;;;2.65;0.80;;;8.50;99.90;;;;;;5077614;28;20123;-88
2023/10/20 11:52:24;;;;;;;1.55;0.82;;;8.50;99.90;;;;;;5078293;28;20391;-88
2023/10/20 11:54:50;;;;;;;2.13;1.00;;;8.50;99.90;;;;;;5095847;28;20043;-88
2023/10/20 11:57:17;;;;;;;2.55;0.95;;;8.50;99.90;;;;;;5080004;28;20118;-89
2023/10/20 11:59:43;;;;;;;5.22;1.63;;;8.50;99.90;;;;;;5097128;27;20043;-89
2023/10/20 12:02:09;;;;;;;1.90;0.60;;;8.50;99.90;;;;;;5096584;28;20050;-89
2023/10/20 12:04:35;;;;;;;7.15;2.05;;;8.50;99.90;;;;;;5078795;28;20415;-89
2023/10/20 12:07:01;;;;;;;0.73;0.40;;;8.50;99.90;;;;;;5086335;28;20040;-89
2023/10/20 12:09:26;;;;;;;0.85;0.65;;;8.50;99.90;;;;;;5094375;28;20444;-88
2023/10/20 12:11:52;;;;;;;1.02;0.50;;;8.50;99.90;;;;;;5094619;28;20036;-88
2023/10/20 12:14:18;;;;;;;1.00;0.55;;;8.50;99.90;;;;;;5083311;28;20039;-87
2023/10/20 12:16:45;;;;;;;1.70;0.55;;;8.50;99.90;;;;;;5094486;27;20265;-89
2023/10/20 12:19:11;;;;;;;2.22;0.65;;;8.60;99.90;;;;;;5090556;27;20059;-87
2023/10/20 12:21:37;;;;;;;0.43;0.35;;;8.50;99.90;;;;;;5087779;28;20430;-88
2023/10/20 12:24:03;;;;;;;0.43;0.30;;;8.50;99.90;;;;;;5101711;27;20043;-88
2023/10/20 12:26:29;;;;;;;0.63;0.30;;;8.50;99.90;;;;;;5079106;28;20038;-89
2023/10/20 12:28:56;;;;;;;2.20;0.60;;;8.50;99.90;;;;;;5099570;28;20402;-88
2023/10/20 12:31:24;;;;;;;0.70;0.43;;;8.60;99.90;;;;;;5085746;28;20126;-89
2023/10/20 12:33:50;;;;;;;0.40;0.13;;;8.50;99.90;;;;;;5085813;28;20082;-88
2023/10/20 12:36:18;;;;;;;0.75;0.38;;;8.50;99.90;;;;;;5102237;28;20455;-89
2023/10/20 12:38:44;;;;;;;1.88;0.40;;;8.60;99.90;;;;;;5102087;28;20406;-88
2023/10/20 12:41:11;;;;;;;0.47;0.30;;;8.60;99.90;;;;;;5082303;28;20499;-88
2023/10/20 12:43:37;;;;;;;1.13;0.50;;;8.60;99.90;;;;;;5077129;28;20046;-89
2023/10/20 12:46:03;;;;;;;0.22;0.10;;;8.50;99.90;;;;;;5076548;28;20491;-89
2023/10/20 12:48:28;;;;;;;0.25;0.20;;;8.60;99.90;;;;;;5094032;28;20046;-89
2023/10/20 12:50:54;;;;;;;0.75;0.40;;;8.50;99.90;;;;;;5093690;28;20434;-89
2023/10/20 12:53:23;;;;;;;0.30;0.30;;;8.50;99.90;;;;;;5077058;28;20122;-89
2023/10/20 12:55:49;;;;;;;0.30;0.20;;;8.50;99.90;;;;;;5077009;28;20070;-89
2023/10/20 12:58:15;;;;;;;0.75;0.45;;;8.50;99.90;;;;;;5093747;28;20059;-89
2023/10/20 13:00:42;;;;;;;0.20;0.10;;;8.50;99.90;;;;;;5076737;28;20521;-88
2023/10/20 13:03:07;;;;;;;0.90;0.40;;;8.50;99.90;;;;;;5093784;28;20043;-89
2023/10/20 13:05:33;;;;;;;0.35;0.30;;;8.50;99.90;;;;;;5076578;28;20046;-89
2023/10/20 13:07:59;;;;;;;0.90;0.30;;;8.50;99.90;;;;;;5094095;28;20043;-88
2023/10/20 13:10:25;;;;;;;0.30;0.30;;;8.50;99.90;;;;;;5093474;28;20506;-89
2023/10/20 13:12:52;;;;;;;1.17;0.35;;;8.50;99.90;;;;;;5097075;28;20115;-88
2023/10/20 13:15:19;;;;;;;0.32;0.30;;;8.40;99.90;;;;;;5078320;28;20406;-88
2023/10/20 13:17:45;;;;;;;0.65;0.20;;;8.40;99.90;;;;;;5093296;28;20093;-88
2023/10/20 13:20:13;;;;;;;0.10;0.10;;;8.40;99.90;;;;;;5076638;28;20035;-88
2023/10/20 13:22:40;;;;;;;1.17;0.30;;;8.40;99.90;;;;;;5076843;28;20043;-88
2023/10/20 13:25:06;;;;;;;0.52;0.28;;;8.40;99.90;;;;;;5076100;28;20057;-88
2023/10/20 13:27:32;;;;;;;0.43;0.30;;;8.40;99.90;;;;;;5093459;28;20043;-89
2023/10/20 13:30:03;;;;;;;0.10;0.10;;;8.40;99.90;;;;;;5093426;28;20031;-89